Time;durP1;ratioP1;P1;durP2;ratioP2;P2;SDS_P1;SDS_P2;PMS_P1;PMS_P2;Temp;Humidity;BMP_temperature;BMP_pressure;BME280_temperature;BME280_humidity;BME280_pressure;Samples;Min_cycle;Max_cycle;Signal;HPM_P1;HPM_P2
2022/01/18 00:02:26;;;;;;;23.37;8.33;;;3.70;99.90;;;;;;5114701;28;20091;-67
2022/01/18 00:04:53;;;;;;;30.83;8.17;;;3.70;99.90;;;;;;5114613;28;20130;-67
2022/01/18 00:07:20;;;;;;;21.13;8.27;;;3.60;99.90;;;;;;5114878;28;20079;-67
2022/01/18 00:09:48;;;;;;;25.43;8.37;;;3.60;99.90;;;;;;5114949;28;20108;-67
2022/01/18 00:12:32;;;;;;;23.87;8.73;;;3.50;99.90;;;;;;5114252;28;20068;-68
2022/01/18 00:17:51;;;;;;;19.13;7.10;;;3.50;99.90;;;;;;5114394;28;20046;-67
2022/01/18 00:20:24;;;;;;;20.03;8.07;;;3.50;99.90;;;;;;5115007;28;20051;-67
2022/01/18 00:22:51;;;;;;;24.80;8.53;;;3.50;99.90;;;;;;5114799;28;20048;-67
2022/01/18 00:25:18;;;;;;;23.30;9.47;;;3.40;99.90;;;;;;5114554;28;20539;-67
2022/01/18 00:27:45;;;;;;;22.37;10.30;;;3.40;99.90;;;;;;5114362;28;20586;-67
2022/01/18 00:30:33;;;;;;;29.80;10.50;;;3.40;99.90;;;;;;5114642;28;20134;-67
2022/01/18 00:33:13;;;;;;;31.37;11.23;;;3.40;99.90;;;;;;5115263;28;20055;-67
2022/01/18 00:35:43;;;;;;;30.90;10.87;;;3.20;99.90;;;;;;5114387;28;20517;-67
2022/01/18 00:38:16;;;;;;;31.17;12.50;;;3.20;99.90;;;;;;5114810;28;20081;-67
2022/01/18 00:40:43;;;;;;;38.10;14.47;;;3.10;99.90;;;;;;5114455;28;20499;-67
2022/01/18 00:43:10;;;;;;;38.53;15.23;;;3.20;99.90;;;;;;5114065;28;20051;-67
2022/01/18 00:45:38;;;;;;;42.53;14.93;;;3.20;99.90;;;;;;5113908;28;20079;-67
2022/01/18 00:48:06;;;;;;;42.27;16.23;;;3.20;99.90;;;;;;5113348;28;20087;-67
2022/01/18 00:50:33;;;;;;;45.13;16.80;;;3.30;99.90;;;;;;5114371;28;20086;-67
2022/01/18 00:53:02;;;;;;;43.73;18.07;;;3.30;99.90;;;;;;5114309;28;20056;-67
2022/01/18 00:55:34;;;;;;;44.93;16.37;;;3.20;99.90;;;;;;5114256;28;20075;-67
2022/01/18 00:58:01;;;;;;;35.93;15.67;;;3.20;99.90;;;;;;5114038;28;20055;-67
2022/01/18 01:00:28;;;;;;;36.20;12.83;;;3.30;99.90;;;;;;5114326;28;20483;-67
2022/01/18 01:02:56;;;;;;;38.00;12.40;;;3.30;99.90;;;;;;5114428;28;20086;-67
2022/01/18 01:05:23;;;;;;;30.23;10.48;;;3.30;99.90;;;;;;5114044;28;20084;-67
2022/01/18 01:07:50;;;;;;;30.33;12.53;;;3.40;99.90;;;;;;5114656;28;20147;-67
2022/01/18 01:10:17;;;;;;;28.23;11.07;;;3.40;99.90;;;;;;5114426;28;20132;-67
2022/01/18 01:12:44;;;;;;;34.63;11.93;;;3.40;99.90;;;;;;5114029;28;20139;-68
2022/01/18 01:15:13;;;;;;;25.93;10.87;;;3.40;99.90;;;;;;5113555;28;20150;-67
2022/01/18 01:17:46;;;;;;;28.63;9.57;;;3.40;99.90;;;;;;5114376;28;20055;-67
2022/01/18 01:32:19;;;;;;;13.10;3.07;;;3.40;99.90;;;;;;5050451;28;20045;-67
2022/01/18 01:34:51;;;;;;;14.67;3.07;;;3.40;99.90;;;;;;5050741;28;20397;-67
2022/01/18 01:43:12;;;;;;;19.23;3.57;;;3.30;99.90;;;;;;5104979;28;20055;-67
2022/01/18 01:45:40;;;;;;;19.00;3.50;;;3.30;99.90;;;;;;5112315;28;20147;-67
2022/01/18 01:48:08;;;;;;;18.67;3.00;;;3.30;99.90;;;;;;5112058;28;20182;-67
2022/01/18 01:50:44;;;;;;;21.80;3.07;;;3.30;99.90;;;;;;5111914;28;20146;-67
2022/01/18 01:53:13;;;;;;;23.63;3.30;;;3.30;99.90;;;;;;5115061;28;20066;-67
2022/01/18 01:55:41;;;;;;;13.63;3.03;;;3.30;99.90;;;;;;5133881;28;20048;-68
2022/01/18 01:58:08;;;;;;;27.27;3.67;;;3.30;99.90;;;;;;5133319;28;20039;-68
2022/01/18 02:00:41;;;;;;;20.00;3.67;;;3.30;99.90;;;;;;5114991;28;20138;-67
2022/01/18 02:03:08;;;;;;;27.10;4.87;;;3.30;99.90;;;;;;5115822;28;20047;-67
2022/01/18 02:05:35;;;;;;;17.60;3.70;;;3.30;99.90;;;;;;5115993;28;20082;-67
2022/01/18 02:08:06;;;;;;;23.47;5.17;;;3.20;99.90;;;;;;5115815;28;20143;-67
2022/01/18 02:10:35;;;;;;;27.43;5.00;;;3.20;99.90;;;;;;5115640;28;20560;-67
2022/01/18 02:13:02;;;;;;;23.53;4.10;;;3.30;99.90;;;;;;5115575;28;20139;-67
2022/01/18 02:15:29;;;;;;;16.80;4.50;;;3.30;99.90;;;;;;5115685;28;20139;-67
2022/01/18 02:23:30;;;;;;;17.63;3.67;;;3.20;99.90;;;;;;5115497;28;20058;-67
2022/01/18 02:25:58;;;;;;;19.23;4.00;;;3.20;99.90;;;;;;5115446;28;20135;-67
2022/01/18 02:28:26;;;;;;;21.13;3.90;;;3.20;99.90;;;;;;5115371;28;20130;-67
2022/01/18 02:30:54;;;;;;;22.87;4.33;;;3.20;99.90;;;;;;5115496;28;20083;-67
2022/01/18 02:33:22;;;;;;;15.77;4.33;;;3.20;99.90;;;;;;5115231;28;20499;-67
2022/01/18 02:35:51;;;;;;;17.43;3.90;;;3.20;99.90;;;;;;5114993;28;20139;-67
2022/01/18 02:38:18;;;;;;;21.77;5.93;;;3.20;99.90;;;;;;5116627;28;20083;-69
2022/01/18 02:40:45;;;;;;;26.33;4.90;;;3.20;99.90;;;;;;5137943;28;20054;-67
2022/01/18 02:45:58;;;;;;;17.20;4.40;;;3.20;99.90;;;;;;5115238;28;20435;-67
2022/01/18 02:48:26;;;;;;;22.83;5.27;;;3.10;99.90;;;;;;5115026;28;20352;-67
2022/01/18 02:50:54;;;;;;;18.93;4.77;;;3.20;99.90;;;;;;5114968;28;20050;-67
2022/01/18 02:53:21;;;;;;;18.00;5.00;;;3.20;99.90;;;;;;5114863;28;20456;-67
2022/01/18 02:55:50;;;;;;;18.63;4.53;;;3.20;99.90;;;;;;5114865;28;20048;-67
2022/01/18 02:58:24;;;;;;;22.13;5.57;;;3.20;99.90;;;;;;5114885;28;20047;-67
2022/01/18 03:03:35;;;;;;;20.97;4.53;;;3.20;99.90;;;;;;5113636;28;20590;-67
2022/01/18 03:06:04;;;;;;;26.70;4.40;;;3.20;99.90;;;;;;5115064;28;20055;-67
2022/01/18 03:08:33;;;;;;;25.17;4.37;;;3.20;99.90;;;;;;5114580;28;20142;-67
2022/01/18 03:11:00;;;;;;;24.60;4.67;;;3.20;99.90;;;;;;5113800;28;20051;-67
2022/01/18 03:13:27;;;;;;;27.67;4.50;;;3.30;99.90;;;;;;5114469;28;20135;-67
2022/01/18 03:15:54;;;;;;;16.23;4.83;;;3.30;99.90;;;;;;5114285;28;20051;-67
2022/01/18 03:18:21;;;;;;;24.07;5.00;;;3.20;99.90;;;;;;5114527;28;20055;-67
2022/01/18 03:20:48;;;;;;;16.83;5.37;;;3.20;99.90;;;;;;5114804;28;20118;-67
2022/01/18 03:23:19;;;;;;;15.37;5.37;;;3.30;99.90;;;;;;5114242;28;20134;-67
2022/01/18 03:25:55;;;;;;;27.13;5.07;;;3.30;99.90;;;;;;5114326;28;20062;-67
2022/01/18 03:28:22;;;;;;;20.10;4.73;;;3.30;99.90;;;;;;5114396;28;20106;-66
2022/01/18 03:30:53;;;;;;;16.57;4.27;;;3.30;99.90;;;;;;5114160;28;20130;-67
2022/01/18 03:33:22;;;;;;;24.10;4.87;;;3.20;99.90;;;;;;5114490;28;20055;-67
2022/01/18 03:35:51;;;;;;;18.73;4.50;;;3.20;99.90;;;;;;5114033;28;20052;-66
2022/01/18 03:38:21;;;;;;;22.37;4.67;;;3.10;99.90;;;;;;5113955;28;20134;-66
2022/01/18 03:40:48;;;;;;;21.37;4.07;;;3.10;99.90;;;;;;5114054;28;20127;-66
2022/01/18 03:43:16;;;;;;;15.23;4.00;;;3.20;99.90;;;;;;5113982;28;20126;-66
2022/01/18 03:45:45;;;;;;;23.63;4.27;;;3.20;99.90;;;;;;5114127;28;20470;-66
2022/01/18 03:48:18;;;;;;;13.73;4.10;;;3.30;99.90;;;;;;5113925;28;20404;-66
2022/01/18 03:50:45;;;;;;;14.70;3.23;;;3.30;99.90;;;;;;5113963;28;20051;-66
2022/01/18 03:53:12;;;;;;;15.00;3.50;;;3.30;99.90;;;;;;5114050;28;20130;-66
2022/01/18 03:55:40;;;;;;;22.90;4.50;;;3.30;99.90;;;;;;5198130;22;20133;-70
2022/01/18 03:58:07;;;;;;;20.43;4.27;;;3.30;99.90;;;;;;5096024;28;20127;-70
2022/01/18 04:00:34;;;;;;;21.37;4.67;;;3.30;99.90;;;;;;5096637;28;20072;-71
2022/01/18 04:03:01;;;;;;;21.70;4.22;;;3.30;99.90;;;;;;5096188;28;20131;-70
2022/01/18 04:05:28;;;;;;;24.73;4.50;;;3.30;99.90;;;;;;5096046;28;20130;-70
2022/01/18 04:07:55;;;;;;;17.73;3.80;;;3.40;99.90;;;;;;5095945;28;20136;-70
2022/01/18 04:10:22;;;;;;;20.37;4.33;;;3.30;99.90;;;;;;5096925;28;20108;-69
2022/01/18 04:12:51;;;;;;;23.73;4.47;;;3.30;99.90;;;;;;5095746;28;20094;-69
2022/01/18 04:15:19;;;;;;;20.40;4.90;;;3.30;99.90;;;;;;5096032;28;20491;-69
2022/01/18 04:18:03;;;;;;;25.63;4.53;;;3.30;99.90;;;;;;5096241;28;20131;-69
2022/01/18 04:26:03;;;;;;;21.27;4.57;;;3.30;99.90;;;;;;5095777;28;20140;-70
2022/01/18 04:28:38;;;;;;;14.07;4.05;;;3.30;99.90;;;;;;5096098;28;20484;-70
2022/01/18 04:31:07;;;;;;;24.97;4.37;;;3.20;99.90;;;;;;5095721;28;20066;-70
2022/01/18 04:33:34;;;;;;;22.03;4.70;;;3.30;99.90;;;;;;5095625;28;20044;-71
2022/01/18 04:36:01;;;;;;;26.10;5.00;;;3.30;99.90;;;;;;5095855;28;20050;-70
2022/01/18 04:38:28;;;;;;;21.73;5.03;;;3.30;99.90;;;;;;5096222;28;20044;-69
2022/01/18 04:41:00;;;;;;;28.43;5.60;;;3.30;99.90;;;;;;5095448;28;20547;-70
2022/01/18 04:43:41;;;;;;;20.70;4.73;;;3.30;99.90;;;;;;5095448;28;20519;-72
2022/01/18 04:48:54;;;;;;;21.17;4.77;;;3.20;99.90;;;;;;5095810;28;20178;-69
2022/01/18 04:51:22;;;;;;;18.23;3.77;;;3.10;99.90;;;;;;5095506;28;20543;-69
2022/01/18 04:53:53;;;;;;;18.13;3.80;;;3.20;99.90;;;;;;5095630;28;20083;-69
2022/01/18 04:56:28;;;;;;;15.33;4.13;;;3.20;99.90;;;;;;5095113;28;20412;-70
2022/01/18 04:58:55;;;;;;;27.87;4.33;;;3.20;99.90;;;;;;5095579;28;20431;-69
2022/01/18 05:01:24;;;;;;;17.13;3.97;;;3.20;99.90;;;;;;5095942;28;20131;-69
2022/01/18 05:03:51;;;;;;;19.40;4.07;;;3.10;99.90;;;;;;5095069;28;20090;-70
2022/01/18 05:06:19;;;;;;;14.67;3.93;;;3.10;99.90;;;;;;5095051;28;20234;-70
2022/01/18 05:08:47;;;;;;;17.87;4.00;;;3.10;99.90;;;;;;5095339;28;20488;-69
2022/01/18 05:11:17;;;;;;;23.17;4.70;;;3.10;99.90;;;;;;5095118;28;20553;-70
2022/01/18 05:19:18;;;;;;;18.60;4.27;;;3.10;99.90;;;;;;5095192;28;20518;-70
2022/01/18 05:24:31;;;;;;;18.57;4.40;;;3.10;99.90;;;;;;5095060;28;20074;-69
2022/01/18 05:26:59;;;;;;;19.33;4.03;;;3.10;99.90;;;;;;5094623;28;20119;-69
2022/01/18 05:29:27;;;;;;;12.17;3.23;;;3.10;99.90;;;;;;5094304;28;20112;-70
2022/01/18 05:31:56;;;;;;;19.73;3.87;;;3.20;99.90;;;;;;5094432;28;20047;-70
2022/01/18 05:34:23;;;;;;;16.70;3.30;;;3.20;99.90;;;;;;5094149;28;20087;-70
2022/01/18 05:36:50;;;;;;;17.47;3.37;;;3.20;99.90;;;;;;5093988;28;20111;-70
2022/01/18 05:39:17;;;;;;;12.30;3.03;;;3.20;99.90;;;;;;5094435;28;20147;-71
2022/01/18 05:41:45;;;;;;;12.67;2.77;;;3.20;99.90;;;;;;5094477;28;20131;-71
2022/01/18 05:44:12;;;;;;;13.23;2.57;;;3.20;99.90;;;;;;5094633;28;20550;-70
2022/01/18 05:46:39;;;;;;;15.07;2.30;;;3.20;99.90;;;;;;5094444;28;20084;-70
2022/01/18 05:49:07;;;;;;;10.67;2.27;;;3.20;99.90;;;;;;5094614;28;20140;-70
2022/01/18 05:51:37;;;;;;;12.57;2.90;;;3.30;99.90;;;;;;5094565;28;20127;-70
2022/01/18 05:54:05;;;;;;;11.10;2.20;;;3.30;99.90;;;;;;5094883;28;20115;-70
2022/01/18 05:56:32;;;;;;;8.27;2.03;;;3.20;99.90;;;;;;5093868;28;20095;-70
2022/01/18 05:59:03;;;;;;;16.57;3.27;;;3.20;99.90;;;;;;5094518;28;20105;-69
2022/01/18 06:01:34;;;;;;;12.57;2.63;;;3.20;99.90;;;;;;5094546;28;20090;-70
2022/01/18 06:04:18;;;;;;;18.83;3.43;;;3.20;99.90;;;;;;5094403;28;20423;-70
2022/01/18 06:06:51;;;;;;;13.00;3.77;;;3.20;99.90;;;;;;5094222;28;20059;-70
2022/01/18 06:09:19;;;;;;;14.67;3.80;;;3.30;99.90;;;;;;5094414;28;20048;-70
2022/01/18 06:11:46;;;;;;;13.33;3.40;;;3.30;99.90;;;;;;5094719;28;20048;-70
2022/01/18 06:14:13;;;;;;;17.70;4.70;;;3.20;99.90;;;;;;5094655;28;20044;-70
2022/01/18 06:16:40;;;;;;;12.90;3.27;;;3.20;99.90;;;;;;5094418;28;20127;-70
2022/01/18 06:19:07;;;;;;;15.43;3.80;;;3.20;99.90;;;;;;5094328;28;20079;-70
2022/01/18 06:21:34;;;;;;;20.77;5.50;;;3.20;99.90;;;;;;5094078;28;20108;-71
2022/01/18 06:24:03;;;;;;;17.97;4.53;;;3.20;99.90;;;;;;5094531;28;20048;-71
2022/01/18 06:26:30;;;;;;;18.33;3.73;;;3.20;99.90;;;;;;5094423;28;20134;-71
2022/01/18 06:28:58;;;;;;;16.03;4.57;;;3.20;99.90;;;;;;5094643;28;20119;-71
2022/01/18 06:31:25;;;;;;;17.93;5.27;;;3.20;99.90;;;;;;5094552;28;20064;-71
2022/01/18 06:33:52;;;;;;;20.13;4.53;;;3.10;99.90;;;;;;5094484;28;20138;-71
2022/01/18 06:36:19;;;;;;;15.73;4.60;;;3.10;99.90;;;;;;5094215;28;20130;-70
2022/01/18 06:38:46;;;;;;;18.63;6.30;;;3.10;99.90;;;;;;5094528;28;20084;-70
2022/01/18 06:41:14;;;;;;;21.33;5.47;;;3.20;99.90;;;;;;5094278;28;20086;-72
2022/01/18 06:43:41;;;;;;;26.77;5.67;;;3.20;99.90;;;;;;5095119;28;20334;-71
2022/01/18 06:46:08;;;;;;;20.63;6.07;;;3.20;99.90;;;;;;5095021;28;20091;-72
2022/01/18 06:48:35;;;;;;;19.27;5.57;;;3.20;99.90;;;;;;5098274;28;20134;-70
2022/01/18 06:51:02;;;;;;;19.63;6.13;;;3.20;99.90;;;;;;5098222;28;20099;-71
2022/01/18 06:53:32;;;;;;;21.27;6.30;;;3.20;99.90;;;;;;5098230;28;20080;-71
2022/01/18 06:56:01;;;;;;;34.10;7.20;;;3.20;99.90;;;;;;5098070;28;20058;-71
2022/01/18 06:58:30;;;;;;;19.73;6.73;;;3.20;99.90;;;;;;5098327;28;20070;-72
2022/01/18 07:00:57;;;;;;;21.93;6.53;;;3.20;99.90;;;;;;5098344;28;20080;-69
2022/01/18 07:03:24;;;;;;;20.23;5.73;;;3.20;99.90;;;;;;5098208;28;20048;-71
2022/01/18 07:05:50;;;;;;;26.37;7.20;;;3.20;99.90;;;;;;5098239;28;20131;-71
2022/01/18 07:08:17;;;;;;;24.93;6.40;;;3.20;99.90;;;;;;5098144;28;20486;-71
2022/01/18 07:10:44;;;;;;;21.87;6.17;;;3.20;99.90;;;;;;5098059;28;20585;-69
2022/01/18 07:13:14;;;;;;;23.17;7.30;;;3.20;99.90;;;;;;5098266;28;20086;-69
2022/01/18 07:15:42;;;;;;;21.33;6.50;;;3.20;99.90;;;;;;5098116;28;20095;-69
2022/01/18 07:18:10;;;;;;;19.47;6.70;;;3.30;99.90;;;;;;5098118;28;20127;-70
2022/01/18 07:20:37;;;;;;;21.70;7.57;;;3.30;99.90;;;;;;5098007;28;20055;-70
2022/01/18 07:23:06;;;;;;;28.83;8.70;;;3.20;99.90;;;;;;5097892;28;20142;-71
2022/01/18 07:25:33;;;;;;;22.53;7.40;;;3.20;99.90;;;;;;5097255;28;20056;-70
2022/01/18 07:28:00;;;;;;;20.97;7.50;;;3.20;99.90;;;;;;5097538;28;20116;-71
2022/01/18 07:30:27;;;;;;;23.33;7.50;;;3.20;99.90;;;;;;5097246;28;20473;-70
2022/01/18 07:32:55;;;;;;;19.53;6.70;;;3.30;99.90;;;;;;5097518;28;20044;-70
2022/01/18 07:35:23;;;;;;;23.90;7.43;;;3.20;99.90;;;;;;5097383;28;20071;-70
2022/01/18 07:37:50;;;;;;;31.10;8.03;;;3.30;99.90;;;;;;5097672;28;20070;-70
2022/01/18 07:40:17;;;;;;;26.57;7.87;;;3.30;99.90;;;;;;5097806;28;20094;-70
2022/01/18 07:42:44;;;;;;;23.80;7.47;;;3.40;99.90;;;;;;5097752;28;20083;-70
2022/01/18 07:45:11;;;;;;;24.27;7.80;;;3.30;99.90;;;;;;5097819;28;20511;-70
2022/01/18 07:47:38;;;;;;;21.97;7.83;;;3.20;99.90;;;;;;5097269;28;20464;-72
2022/01/18 07:50:08;;;;;;;20.90;6.80;;;3.30;99.90;;;;;;5097671;28;20080;-71
2022/01/18 07:52:35;;;;;;;27.43;6.93;;;3.30;99.90;;;;;;5098030;28;20087;-69
2022/01/18 07:55:03;;;;;;;25.93;7.57;;;3.30;99.90;;;;;;5097498;28;20052;-70
2022/01/18 07:57:30;;;;;;;24.27;6.53;;;3.40;99.90;;;;;;5097312;28;20072;-69
2022/01/18 07:59:57;;;;;;;24.53;7.63;;;3.30;99.90;;;;;;5097503;28;20075;-70
2022/01/18 08:02:24;;;;;;;21.13;6.50;;;3.40;99.90;;;;;;5096912;28;20044;-70
2022/01/18 08:04:51;;;;;;;23.40;6.80;;;3.40;99.90;;;;;;5097825;28;20078;-70
2022/01/18 08:07:19;;;;;;;23.92;7.68;;;3.30;99.90;;;;;;5097530;28;20093;-71
2022/01/18 08:09:46;;;;;;;27.20;7.10;;;3.30;99.90;;;;;;5097102;28;20464;-75
2022/01/18 08:12:14;;;;;;;33.50;6.40;;;3.30;99.90;;;;;;5097435;28;20530;-73
2022/01/18 08:14:45;;;;;;;24.23;6.87;;;3.40;99.90;;;;;;5097376;28;20105;-71
2022/01/18 08:17:13;;;;;;;19.87;6.40;;;3.40;99.90;;;;;;5097162;28;20101;-70
2022/01/18 08:19:40;;;;;;;18.63;5.67;;;3.40;99.90;;;;;;5096690;28;20505;-71
2022/01/18 08:22:07;;;;;;;21.00;6.60;;;3.40;99.90;;;;;;5096771;28;20052;-71
2022/01/18 08:24:36;;;;;;;18.37;5.37;;;3.60;99.90;;;;;;5096753;28;20461;-71
2022/01/18 08:27:03;;;;;;;17.93;6.13;;;3.70;99.90;;;;;;5096791;28;20063;-70
2022/01/18 08:29:30;;;;;;;17.17;5.87;;;3.70;99.90;;;;;;5096359;28;20048;-71
2022/01/18 08:31:57;;;;;;;22.60;6.53;;;3.90;99.90;;;;;;5096330;28;20071;-71
2022/01/18 08:34:24;;;;;;;23.40;6.27;;;4.10;99.90;;;;;;5096656;28;20105;-70
2022/01/18 08:36:51;;;;;;;22.05;6.00;;;4.10;99.90;;;;;;5096455;28;20052;-70
2022/01/18 08:39:18;;;;;;;28.58;6.45;;;4.20;99.90;;;;;;5096684;28;20074;-71
2022/01/18 08:41:47;;;;;;;22.60;7.72;;;4.20;99.90;;;;;;5096334;28;20082;-71
2022/01/18 08:44:14;;;;;;;30.25;7.63;;;4.30;99.90;;;;;;5095995;28;20090;-71
2022/01/18 08:46:40;;;;;;;24.38;7.47;;;4.20;99.90;;;;;;5095518;28;20044;-72
2022/01/18 08:49:08;;;;;;;22.27;7.50;;;4.20;99.90;;;;;;5095908;28;20075;-71
2022/01/18 08:51:35;;;;;;;24.45;6.90;;;4.30;99.90;;;;;;5095580;28;20087;-72
2022/01/18 08:54:03;;;;;;;22.35;7.75;;;4.40;99.90;;;;;;5095544;28;20125;-71
2022/01/18 08:56:30;;;;;;;22.98;7.82;;;4.40;99.90;;;;;;5094744;28;20138;-71
2022/01/18 08:58:59;;;;;;;18.63;6.55;;;4.40;99.90;;;;;;5094911;28;20083;-71
2022/01/18 09:01:26;;;;;;;14.32;6.22;;;4.40;99.90;;;;;;5094117;28;20087;-72
2022/01/18 09:03:53;;;;;;;18.58;6.30;;;4.40;99.90;;;;;;5094510;28;20044;-72
2022/01/18 09:06:22;;;;;;;14.43;5.97;;;4.50;99.90;;;;;;5094022;28;20102;-71
2022/01/18 09:08:55;;;;;;;23.95;7.63;;;4.60;99.90;;;;;;5093713;28;20055;-72
2022/01/18 09:11:23;;;;;;;21.73;6.60;;;4.60;99.90;;;;;;5095040;28;20139;-71
2022/01/18 09:13:51;;;;;;;17.00;5.82;;;4.50;99.90;;;;;;5094824;28;20052;-73
2022/01/18 09:16:19;;;;;;;18.90;6.95;;;4.60;99.90;;;;;;5094696;28;20048;-72
2022/01/18 09:18:46;;;;;;;26.38;8.30;;;4.50;99.90;;;;;;5095196;28;20048;-73
2022/01/18 09:21:14;;;;;;;20.25;7.03;;;4.60;99.90;;;;;;5094347;28;20644;-73
2022/01/18 09:23:42;;;;;;;23.30;7.72;;;4.70;99.90;;;;;;5094880;28;20068;-72
2022/01/18 09:26:09;;;;;;;22.17;7.10;;;4.60;99.90;;;;;;5094685;28;20078;-72
2022/01/18 09:28:36;;;;;;;18.70;6.10;;;4.60;99.90;;;;;;5094574;28;20080;-72
2022/01/18 09:31:03;;;;;;;16.25;6.25;;;4.50;99.90;;;;;;5095142;28;20044;-73
2022/01/18 09:33:32;;;;;;;17.23;6.43;;;4.50;99.90;;;;;;5094946;28;20075;-72
2022/01/18 09:35:59;;;;;;;18.45;6.43;;;4.40;99.90;;;;;;5094887;28;20083;-72
2022/01/18 09:38:26;;;;;;;16.83;5.68;;;4.40;99.90;;;;;;5095236;28;20059;-72
2022/01/18 09:40:53;;;;;;;16.98;5.95;;;4.50;99.90;;;;;;5094299;28;20483;-70
2022/01/18 09:43:20;;;;;;;19.73;6.78;;;4.70;99.90;;;;;;5094019;28;20080;-70
2022/01/18 09:45:47;;;;;;;21.02;6.47;;;4.70;99.90;;;;;;5094145;28;20044;-70
2022/01/18 09:48:15;;;;;;;23.80;6.95;;;4.70;99.90;;;;;;5094590;28;20084;-70
2022/01/18 09:50:45;;;;;;;22.17;7.32;;;4.70;99.90;;;;;;5094221;28;20126;-70
2022/01/18 09:53:13;;;;;;;23.05;6.60;;;4.60;99.90;;;;;;5094039;28;20044;-71
2022/01/18 09:55:42;;;;;;;17.58;6.05;;;4.80;99.90;;;;;;5093870;28;20417;-73
2022/01/18 09:58:10;;;;;;;18.02;6.20;;;4.90;99.90;;;;;;5094088;28;20052;-73
2022/01/18 10:00:40;;;;;;;16.33;5.20;;;4.90;99.90;;;;;;5093905;28;20079;-73
2022/01/18 10:03:21;;;;;;;18.67;5.90;;;4.90;99.90;;;;;;5094669;28;20087;-73
2022/01/18 10:05:51;;;;;;;18.45;5.57;;;4.90;99.90;;;;;;5094487;28;20044;-72
2022/01/18 10:08:20;;;;;;;13.55;4.93;;;4.80;99.90;;;;;;5094572;28;20504;-74
2022/01/18 10:10:49;;;;;;;25.42;5.75;;;4.80;99.90;;;;;;5093744;28;20076;-72
2022/01/18 10:13:18;;;;;;;27.17;6.32;;;5.00;99.90;;;;;;5093667;28;20495;-72
2022/01/18 10:16:02;;;;;;;15.32;5.18;;;5.00;99.90;;;;;;5093793;28;20131;-73
2022/01/18 10:18:37;;;;;;;15.23;5.07;;;5.00;99.90;;;;;;5094435;28;20079;-73
2022/01/18 10:21:07;;;;;;;21.52;5.07;;;5.00;99.90;;;;;;5095904;28;20415;-73
2022/01/18 10:23:36;;;;;;;12.30;4.40;;;4.90;99.90;;;;;;5097451;28;20089;-74
2022/01/18 10:26:21;;;;;;;21.65;5.05;;;5.00;99.90;;;;;;5097663;28;20086;-73
2022/01/18 10:28:48;;;;;;;19.05;4.63;;;4.90;99.90;;;;;;5097391;28;20079;-72
2022/01/18 10:31:27;;;;;;;16.05;5.38;;;4.90;99.90;;;;;;5097225;28;20530;-73
2022/01/18 10:34:20;;;;;;;14.95;4.80;;;5.00;99.90;;;;;;5097397;28;20094;-73
2022/01/18 10:36:59;;;;;;;15.85;5.50;;;5.00;99.90;;;;;;5097590;28;20056;-75
2022/01/18 10:39:28;;;;;;;17.30;5.30;;;4.80;99.90;;;;;;5097485;28;20051;-73
2022/01/18 10:41:55;;;;;;;17.10;5.65;;;5.00;99.90;;;;;;5096940;28;20127;-72
2022/01/18 10:44:24;;;;;;;16.42;5.47;;;5.10;99.90;;;;;;5097157;28;20075;-72
2022/01/18 10:46:52;;;;;;;21.10;6.28;;;5.40;99.90;;;;;;5097339;28;20055;-73
2022/01/18 10:49:32;;;;;;;18.63;5.50;;;5.70;99.90;;;;;;5097002;28;20103;-73
2022/01/18 10:52:06;;;;;;;17.55;5.97;;;6.00;99.90;;;;;;5097585;28;20101;-72
2022/01/18 10:54:39;;;;;;;16.42;6.15;;;6.40;99.90;;;;;;5096959;28;20088;-73
2022/01/18 10:57:07;;;;;;;16.83;4.60;;;6.40;99.90;;;;;;5096539;28;20094;-73
2022/01/18 10:59:37;;;;;;;13.73;4.93;;;6.70;99.90;;;;;;5096931;28;20054;-73
2022/01/18 11:02:14;;;;;;;12.80;5.40;;;7.20;99.90;;;;;;5096568;28;20518;-73
2022/01/18 11:04:42;;;;;;;;;;;9.70;99.90;;;;;;5096135;28;20059;-72
2022/01/18 11:07:12;;;;;;;13.73;3.85;;;9.90;99.90;;;;;;5095031;28;19927;-70
2022/01/18 11:09:39;;;;;;;10.68;4.57;;;9.30;99.90;;;;;;5095010;28;20105;-70
2022/01/18 11:12:07;;;;;;;11.90;3.97;;;11.40;99.90;;;;;;5094902;28;20523;-70
2022/01/18 11:14:37;;;;;;;12.60;3.47;;;10.00;99.90;;;;;;5094396;28;20127;-71
2022/01/18 11:17:07;;;;;;;8.82;3.38;;;9.20;99.90;;;;;;5094023;28;20078;-72
2022/01/18 11:19:37;;;;;;;7.07;2.60;;;11.90;99.90;;;;;;5094004;28;20059;-69
2022/01/18 11:22:10;;;;;;;7.35;2.20;;;16.10;99.90;;;;;;5093971;28;20139;-71
2022/01/18 11:24:41;;;;;;;7.05;2.28;;;12.50;99.90;;;;;;5094058;28;20060;-71
2022/01/18 11:27:12;;;;;;;8.70;2.15;;;12.10;99.90;;;;;;5093684;28;20503;-71
2022/01/18 11:29:39;;;;;;;10.48;2.60;;;11.30;99.90;;;;;;5093780;28;20101;-71
2022/01/18 11:32:07;;;;;;;11.20;2.80;;;11.20;99.90;;;;;;5092785;28;20105;-71
2022/01/18 11:34:49;;;;;;;9.40;2.28;;;11.40;99.90;;;;;;5093779;28;20127;-71
2022/01/18 11:37:18;;;;;;;8.20;2.38;;;11.10;99.90;;;;;;5093698;28;20140;-71
2022/01/18 11:39:46;;;;;;;11.05;2.97;;;11.10;99.90;;;;;;5093619;28;20048;-71
2022/01/18 11:42:14;;;;;;;12.43;3.08;;;9.30;99.90;;;;;;5093522;28;20553;-71
2022/01/18 11:44:42;;;;;;;9.73;2.55;;;9.10;99.90;;;;;;5093387;28;20086;-69
2022/01/18 11:47:09;;;;;;;8.77;2.30;;;9.90;99.90;;;;;;5093453;28;20131;-71
2022/01/18 11:49:37;;;;;;;7.50;2.50;;;13.20;99.90;;;;;;5093263;28;20067;-71
2022/01/18 11:52:07;;;;;;;7.97;2.60;;;11.40;99.90;;;;;;5092904;28;20062;-70
2022/01/18 11:54:42;;;;;;;7.20;2.30;;;9.60;99.90;;;;;;5093129;28;20551;-70
2022/01/18 11:57:35;;;;;;;10.88;2.80;;;9.10;99.90;;;;;;5093285;28;20059;-70
2022/01/18 12:00:21;;;;;;;8.32;2.30;;;9.20;99.90;;;;;;5079360;28;20131;-70
2022/01/18 12:02:50;;;;;;;10.27;2.97;;;8.70;99.90;;;;;;5093153;28;20044;-70
2022/01/18 12:05:19;;;;;;;6.60;2.35;;;8.70;99.90;;;;;;5092821;28;20588;-71
2022/01/18 12:07:58;;;;;;;6.25;2.15;;;8.70;99.90;;;;;;5093244;28;20078;-71
2022/01/18 12:10:48;;;;;;;10.48;2.42;;;8.80;99.90;;;;;;5092933;28;21922;-71
2022/01/18 12:13:44;;;;;;;9.10;2.72;;;8.90;99.90;;;;;;5092931;28;20138;-71
2022/01/18 12:16:28;;;;;;;8.50;2.15;;;9.00;99.90;;;;;;5092701;28;20087;-71
2022/01/18 12:19:05;;;;;;;7.55;1.98;;;8.70;99.90;;;;;;5092978;28;20059;-71
2022/01/18 12:21:34;;;;;;;9.77;2.20;;;8.60;99.90;;;;;;5092703;28;20142;-71
2022/01/18 12:24:21;;;;;;;5.60;1.88;;;8.10;99.90;;;;;;5092701;28;20075;-71
2022/01/18 12:26:59;;;;;;;6.20;2.17;;;7.80;99.90;;;;;;5092443;28;20508;-71
2022/01/18 12:32:28;;;;;;;7.30;2.40;;;7.30;99.90;;;;;;5078207;28;20528;-71
2022/01/18 12:35:03;;;;;;;6.93;2.45;;;7.40;99.90;;;;;;5092467;28;20056;-72
2022/01/18 12:37:34;;;;;;;5.85;2.22;;;7.20;99.90;;;;;;5092378;28;20492;-71
2022/01/18 12:40:08;;;;;;;8.75;2.63;;;7.00;99.90;;;;;;5092284;28;20089;-71
2022/01/18 12:45:25;;;;;;;8.70;2.13;;;7.30;99.90;;;;;;5092464;28;20498;-70
2022/01/18 12:47:55;;;;;;;6.65;2.35;;;7.20;99.90;;;;;;5092254;28;20134;-71
2022/01/18 12:50:24;;;;;;;8.45;2.40;;;7.20;99.90;;;;;;5092297;28;20056;-70
2022/01/18 12:52:53;;;;;;;8.65;2.53;;;7.10;99.90;;;;;;5092104;28;20135;-70
2022/01/18 12:55:32;;;;;;;4.97;1.63;;;7.10;99.90;;;;;;5091956;28;20492;-70
2022/01/18 12:58:01;;;;;;;4.63;1.83;;;7.00;99.90;;;;;;5092332;28;20126;-70
2022/01/18 13:00:30;;;;;;;5.60;1.80;;;6.90;99.90;;;;;;5092281;28;20091;-70
2022/01/18 13:03:00;;;;;;;8.02;2.35;;;6.80;99.90;;;;;;5092186;28;20088;-70
2022/01/18 13:05:35;;;;;;;8.57;2.17;;;6.80;99.90;;;;;;5091937;28;20063;-70
2022/01/18 13:08:03;;;;;;;4.18;1.80;;;6.80;99.90;;;;;;5092092;28;20127;-70
2022/01/18 13:10:42;;;;;;;5.20;2.10;;;6.80;99.90;;;;;;5092120;28;20055;-70
2022/01/18 13:13:13;;;;;;;5.97;1.90;;;6.80;99.90;;;;;;5091752;28;20131;-70
2022/01/18 13:22:52;;;;;;;9.13;2.45;;;6.80;99.90;;;;;;5091658;28;20097;-71
2022/01/18 13:27:23;;;;;;;6.68;2.00;;;6.60;99.90;;;;;;5091699;28;20151;-72
2022/01/18 13:29:52;;;;;;;5.13;1.42;;;6.50;99.90;;;;;;5091491;28;20109;-71
2022/01/18 13:32:26;;;;;;;5.65;1.50;;;6.50;99.90;;;;;;5091145;28;20161;-72
2022/01/18 13:34:56;;;;;;;5.20;1.77;;;6.20;99.90;;;;;;5091402;28;20546;-72
2022/01/18 13:37:26;;;;;;;4.40;1.98;;;6.20;99.90;;;;;;5092067;28;20056;-71
2022/01/18 13:39:55;;;;;;;6.50;1.60;;;6.10;99.90;;;;;;5091867;28;20105;-73
2022/01/18 13:42:28;;;;;;;6.35;1.40;;;6.10;99.90;;;;;;5092551;28;20052;-72
2022/01/18 13:45:16;;;;;;;6.05;1.90;;;5.80;99.90;;;;;;5092327;28;20063;-70
2022/01/18 13:47:46;;;;;;;7.28;2.17;;;5.60;99.90;;;;;;5092706;28;20114;-71
2022/01/18 13:50:47;;;;;;;5.88;2.17;;;5.60;99.90;;;;;;5093223;28;20040;-71
2022/01/18 13:53:17;;;;;;;7.57;1.95;;;5.60;99.90;;;;;;4990901;28;20122;-69
2022/01/18 13:55:53;;;;;;;6.68;1.90;;;5.50;99.90;;;;;;5074710;28;20048;-70
2022/01/18 13:58:22;;;;;;;7.53;2.00;;;5.60;99.90;;;;;;5096703;28;20087;-69
2022/01/18 14:00:49;;;;;;;5.32;1.98;;;5.60;99.90;;;;;;5096820;28;20103;-70
2022/01/18 14:03:31;;;;;;;4.38;1.85;;;5.60;99.90;;;;;;5096488;28;20476;-71
2022/01/18 14:05:58;;;;;;;4.40;1.73;;;5.70;99.90;;;;;;5096364;28;20131;-70